Time;durP1;ratioP1;P1;durP2;ratioP2;P2;SDS_P1;SDS_P2;PMS_P1;PMS_P2;Temp;Humidity;BMP_temperature;BMP_pressure;BME280_temperature;BME280_humidity;BME280_pressure;Samples;Min_cycle;Max_cycle;Signal;HPM_P1;HPM_P2
2023/12/28 00:01:28;;;;;;;3.42;1.40;;;10.20;99.90;;;;;;5052533;28;20187;-52
2023/12/28 00:03:53;;;;;;;1.45;1.33;;;10.20;99.90;;;;;;5052100;28;20210;-51
2023/12/28 00:06:19;;;;;;;1.65;1.30;;;10.20;99.90;;;;;;5052229;28;20175;-51
2023/12/28 00:08:48;;;;;;;1.38;1.27;;;10.20;99.90;;;;;;5052684;28;20636;-51
2023/12/28 00:11:14;;;;;;;4.28;1.98;;;10.20;99.90;;;;;;5052280;28;20631;-50
2023/12/28 00:13:39;;;;;;;1.50;1.40;;;10.10;99.90;;;;;;5052530;28;20174;-50
2023/12/28 00:16:05;;;;;;;3.05;1.42;;;10.10;99.90;;;;;;5052755;28;20186;-52
2023/12/28 00:18:31;;;;;;;3.38;1.70;;;10.10;99.90;;;;;;5052794;28;20214;-56
2023/12/28 00:20:57;;;;;;;1.33;1.23;;;10.10;99.90;;;;;;5052172;28;20175;-53
2023/12/28 00:23:22;;;;;;;1.30;1.20;;;10.00;99.90;;;;;;5052016;28;20289;-51
2023/12/28 00:25:48;;;;;;;3.45;1.92;;;10.00;99.90;;;;;;5052050;28;20171;-52
2023/12/28 00:28:13;;;;;;;2.40;1.77;;;10.00;99.90;;;;;;5052031;28;20198;-53
2023/12/28 00:30:39;;;;;;;1.98;1.30;;;9.90;99.90;;;;;;5051996;28;20213;-52
2023/12/28 00:33:04;;;;;;;2.05;1.58;;;9.90;99.90;;;;;;5050863;28;20174;-53
2023/12/28 00:35:30;;;;;;;2.80;1.48;;;9.80;99.90;;;;;;5052047;28;20169;-53
2023/12/28 00:37:55;;;;;;;3.97;1.90;;;9.80;99.90;;;;;;5051780;28;20197;-53
2023/12/28 00:40:21;;;;;;;3.92;1.60;;;9.80;99.90;;;;;;5051869;28;20178;-52
2023/12/28 00:42:48;;;;;;;3.13;1.30;;;9.70;99.90;;;;;;5051589;28;20571;-53
2023/12/28 00:45:13;;;;;;;2.60;1.40;;;9.70;99.90;;;;;;5051817;28;20175;-56
2023/12/28 00:47:39;;;;;;;2.88;1.42;;;9.70;99.90;;;;;;5051669;28;20250;-60
2023/12/28 00:50:05;;;;;;;3.35;1.80;;;9.70;99.90;;;;;;5052103;28;20178;-58
2023/12/28 00:52:30;;;;;;;2.40;1.52;;;10.30;99.90;;;;;;5052203;28;20216;-59
2023/12/28 00:54:56;;;;;;;2.28;1.55;;;9.70;99.90;;;;;;5051432;28;20757;-57
2023/12/28 00:57:22;;;;;;;3.35;1.90;;;9.70;99.90;;;;;;5051598;28;20236;-60
2023/12/28 00:59:47;;;;;;;2.35;1.50;;;9.70;99.90;;;;;;5051503;28;20245;-50
2023/12/28 01:02:13;;;;;;;2.25;1.70;;;9.70;99.90;;;;;;5050065;28;20225;-51
2023/12/28 01:04:38;;;;;;;2.70;1.67;;;9.70;99.90;;;;;;5031686;28;20631;-51
2023/12/28 01:07:05;;;;;;;3.78;1.60;;;9.70;99.90;;;;;;5031890;28;20194;-53
2023/12/28 01:09:32;;;;;;;1.77;1.40;;;9.70;99.90;;;;;;5032009;28;20207;-53
2023/12/28 01:11:58;;;;;;;3.75;1.50;;;9.70;99.90;;;;;;5031618;28;20182;-52
2023/12/28 01:14:24;;;;;;;2.45;1.73;;;9.70;99.90;;;;;;5031300;28;20228;-50
2023/12/28 01:16:49;;;;;;;3.38;1.17;;;9.80;99.90;;;;;;5031399;28;20171;-51
2023/12/28 01:19:15;;;;;;;3.55;1.60;;;9.80;99.90;;;;;;5031296;28;20635;-52
2023/12/28 01:21:41;;;;;;;2.00;1.33;;;9.80;99.90;;;;;;5031395;28;20171;-51
2023/12/28 01:24:06;;;;;;;1.80;1.58;;;9.80;99.90;;;;;;5031251;28;20182;-51
2023/12/28 01:26:32;;;;;;;4.93;1.70;;;9.80;99.90;;;;;;5031864;28;20179;-59
2023/12/28 01:28:57;;;;;;;3.75;2.15;;;9.80;99.90;;;;;;5031322;28;20190;-50
2023/12/28 01:31:23;;;;;;;2.90;2.35;;;9.80;99.90;;;;;;5031418;28;20182;-52
2023/12/28 01:33:48;;;;;;;4.00;1.90;;;9.80;99.90;;;;;;5044440;28;20171;-54
2023/12/28 01:36:18;;;;;;;4.45;1.95;;;9.80;99.90;;;;;;5050789;28;20179;-53
2023/12/28 01:38:44;;;;;;;6.97;1.98;;;9.90;99.90;;;;;;5051260;28;20170;-53
2023/12/28 01:41:10;;;;;;;4.15;1.88;;;9.90;99.90;;;;;;5051064;28;20166;-51
2023/12/28 01:43:35;;;;;;;2.55;1.70;;;9.90;99.90;;;;;;5050992;28;20206;-52
2023/12/28 01:46:02;;;;;;;1.60;1.42;;;9.90;99.90;;;;;;5051405;28;20245;-51
2023/12/28 01:48:28;;;;;;;1.65;1.50;;;9.80;99.90;;;;;;5050977;28;20171;-51
2023/12/28 01:50:56;;;;;;;2.45;1.70;;;9.90;99.90;;;;;;5050879;28;20249;-53
2023/12/28 01:53:22;;;;;;;2.40;2.20;;;9.80;99.90;;;;;;5051158;28;20254;-50
2023/12/28 01:55:48;;;;;;;3.80;1.77;;;9.80;99.90;;;;;;5050728;28;20214;-53
2023/12/28 01:58:14;;;;;;;2.95;1.75;;;9.80;99.90;;;;;;5050875;28;20163;-50
2023/12/28 02:00:40;;;;;;;5.47;2.25;;;9.80;99.90;;;;;;5050807;28;20171;-53
2023/12/28 02:03:07;;;;;;;5.30;1.92;;;9.80;99.90;;;;;;5040620;28;20218;-54
2023/12/28 02:05:33;;;;;;;2.90;1.92;;;9.80;99.90;;;;;;5045159;28;20171;-57
2023/12/28 02:07:59;;;;;;;2.35;2.05;;;9.70;99.90;;;;;;5049394;28;20179;-52
2023/12/28 02:10:24;;;;;;;3.85;2.15;;;9.70;99.90;;;;;;5030923;28;20883;-51
2023/12/28 02:12:52;;;;;;;1.70;1.60;;;9.80;99.90;;;;;;5030905;28;20167;-53
2023/12/28 02:15:19;;;;;;;3.45;1.80;;;9.70;99.90;;;;;;5034576;28;20246;-51
2023/12/28 02:17:50;;;;;;;5.47;2.00;;;9.80;99.90;;;;;;5034878;28;20571;-51
2023/12/28 02:20:19;;;;;;;3.35;2.10;;;9.80;99.90;;;;;;5034642;28;20167;-52
2023/12/28 02:22:46;;;;;;;3.13;1.92;;;9.80;99.90;;;;;;5034443;28;20223;-53
2023/12/28 02:25:12;;;;;;;3.58;1.60;;;9.80;99.90;;;;;;5034557;28;20198;-54
2023/12/28 02:27:48;;;;;;;1.98;1.73;;;9.80;99.90;;;;;;5034659;28;20168;-54
2023/12/28 02:30:16;;;;;;;1.48;1.38;;;9.80;99.90;;;;;;5034395;28;20163;-51
2023/12/28 02:33:19;;;;;;;5.80;2.20;;;9.80;99.90;;;;;;5040407;28;20699;-53
2023/12/28 02:35:53;;;;;;;5.57;2.10;;;9.80;99.90;;;;;;5054362;28;20630;-52
2023/12/28 02:38:20;;;;;;;2.92;2.10;;;9.80;99.90;;;;;;5054133;28;20212;-52
2023/12/28 02:40:47;;;;;;;12.18;2.22;;;9.80;99.90;;;;;;5053734;28;20167;-52
2023/12/28 02:43:12;;;;;;;4.00;2.40;;;9.80;99.90;;;;;;5053966;28;20719;-52
2023/12/28 02:45:39;;;;;;;7.20;2.22;;;9.80;99.90;;;;;;5053906;28;20254;-58
2023/12/28 02:48:05;;;;;;;4.90;1.88;;;9.80;99.90;;;;;;5054449;28;20257;-51
2023/12/28 02:50:31;;;;;;;4.97;1.90;;;9.80;99.90;;;;;;5054413;28;20237;-52
2023/12/28 02:52:57;;;;;;;2.97;2.30;;;9.80;99.90;;;;;;5053877;28;20171;-52
2023/12/28 02:55:23;;;;;;;3.10;1.90;;;9.80;99.90;;;;;;5053665;28;20218;-51
2023/12/28 02:58:00;;;;;;;4.57;2.05;;;9.80;99.90;;;;;;5053743;28;20174;-52
2023/12/28 03:00:26;;;;;;;1.70;1.60;;;9.80;99.90;;;;;;5053977;28;20244;-52
2023/12/28 03:02:52;;;;;;;3.38;1.98;;;9.80;99.90;;;;;;5052861;28;20229;-50
2023/12/28 03:05:18;;;;;;;3.47;1.95;;;9.80;99.90;;;;;;5053290;28;20204;-50
2023/12/28 03:07:44;;;;;;;2.17;1.92;;;9.90;99.90;;;;;;5053585;28;20175;-49
2023/12/28 03:10:11;;;;;;;4.88;2.03;;;9.90;99.90;;;;;;5053558;28;20162;-50
2023/12/28 03:12:36;;;;;;;3.03;1.98;;;9.90;99.90;;;;;;5053729;28;20179;-51
2023/12/28 03:15:03;;;;;;;1.70;1.60;;;9.90;99.90;;;;;;5053893;28;20166;-51
2023/12/28 03:17:30;;;;;;;2.70;1.73;;;9.90;99.90;;;;;;5052224;28;20524;-51
2023/12/28 03:19:56;;;;;;;3.83;1.90;;;9.90;99.90;;;;;;5053576;28;20594;-51
2023/12/28 03:22:22;;;;;;;3.10;2.00;;;9.90;99.90;;;;;;5053272;28;20332;-50
2023/12/28 03:24:48;;;;;;;2.13;1.80;;;9.90;99.90;;;;;;5052611;28;20253;-49
2023/12/28 03:27:14;;;;;;;4.10;1.90;;;9.90;99.90;;;;;;5052979;28;20654;-50
2023/12/28 03:29:42;;;;;;;2.85;2.10;;;9.90;99.90;;;;;;5053108;28;20170;-50
2023/12/28 03:32:07;;;;;;;4.07;2.13;;;9.90;99.90;;;;;;5049548;28;20171;-50
2023/12/28 03:34:33;;;;;;;3.53;1.65;;;9.90;99.90;;;;;;5033585;28;20182;-50
2023/12/28 03:36:59;;;;;;;4.72;1.88;;;9.90;99.90;;;;;;5033406;28;20278;-50
2023/12/28 03:39:25;;;;;;;4.50;1.90;;;9.90;99.90;;;;;;5033090;28;20250;-50
2023/12/28 03:41:52;;;;;;;2.38;1.88;;;9.90;99.90;;;;;;5032986;28;20221;-49
2023/12/28 03:44:20;;;;;;;2.85;1.48;;;9.90;99.90;;;;;;5033218;28;20183;-49
2023/12/28 03:46:47;;;;;;;1.83;1.40;;;10.00;99.90;;;;;;5033258;28;20191;-50
2023/12/28 03:49:14;;;;;;;3.28;1.88;;;10.00;99.90;;;;;;5032915;28;20679;-52
2023/12/28 03:51:40;;;;;;;4.28;1.95;;;10.00;99.90;;;;;;5032828;28;20164;-52
2023/12/28 03:54:05;;;;;;;2.85;2.00;;;10.00;99.90;;;;;;5032753;28;20215;-52
2023/12/28 03:56:32;;;;;;;3.20;1.90;;;10.00;99.90;;;;;;5033455;28;20181;-57
2023/12/28 03:58:58;;;;;;;5.00;1.65;;;10.00;99.90;;;;;;5032678;28;20178;-52
2023/12/28 04:01:23;;;;;;;3.92;2.10;;;10.00;99.90;;;;;;5041692;28;20635;-52
2023/12/28 04:03:49;;;;;;;3.72;1.75;;;10.00;99.90;;;;;;5052457;28;20213;-53
2023/12/28 04:06:15;;;;;;;3.38;1.55;;;10.00;99.90;;;;;;5052477;28;20174;-52
2023/12/28 04:08:42;;;;;;;1.85;1.50;;;10.00;99.90;;;;;;5052661;28;20261;-53
2023/12/28 04:11:08;;;;;;;3.97;1.77;;;10.00;99.90;;;;;;5052299;28;20698;-53
2023/12/28 04:13:33;;;;;;;10.73;1.98;;;10.00;99.90;;;;;;5052813;28;20163;-52
2023/12/28 04:15:59;;;;;;;2.92;1.95;;;10.00;99.90;;;;;;5052237;28;20181;-52
2023/12/28 04:18:24;;;;;;;2.30;1.52;;;10.00;99.90;;;;;;5052215;28;20171;-53
2023/12/28 04:20:50;;;;;;;7.65;1.92;;;10.00;99.90;;;;;;5052173;28;20327;-53
2023/12/28 04:23:16;;;;;;;4.40;1.73;;;10.00;99.90;;;;;;5052004;28;20570;-53
2023/12/28 04:25:41;;;;;;;2.45;1.70;;;10.00;99.90;;;;;;5052196;28;20171;-53
2023/12/28 04:28:07;;;;;;;3.90;1.85;;;9.90;99.90;;;;;;5052056;28;20174;-53
2023/12/28 04:30:33;;;;;;;1.50;1.40;;;9.90;99.90;;;;;;5050183;28;20172;-53
2023/12/28 04:32:58;;;;;;;3.97;1.80;;;10.00;99.90;;;;;;5032001;28;20171;-53
2023/12/28 04:35:24;;;;;;;3.65;1.60;;;10.00;99.90;;;;;;5048023;28;20178;-52
2023/12/28 04:37:49;;;;;;;8.82;1.95;;;10.00;99.90;;;;;;5051724;28;20178;-52
2023/12/28 04:40:16;;;;;;;6.95;1.77;;;9.90;99.90;;;;;;5051808;28;20165;-50
2023/12/28 04:42:42;;;;;;;3.17;1.70;;;10.00;99.90;;;;;;5051771;28;20206;-51
2023/12/28 04:45:09;;;;;;;3.08;1.70;;;10.00;99.90;;;;;;5051816;28;20644;-52
2023/12/28 04:47:34;;;;;;;14.43;7.43;;;9.90;99.90;;;;;;5052444;28;20253;-52
2023/12/28 04:50:00;;;;;;;3.55;2.03;;;10.00;99.90;;;;;;5051931;28;20195;-49
2023/12/28 04:52:26;;;;;;;4.95;2.47;;;10.00;99.90;;;;;;5051839;28;20167;-49
2023/12/28 04:54:51;;;;;;;3.35;1.60;;;10.00;99.90;;;;;;5051475;28;20217;-49
2023/12/28 04:57:17;;;;;;;4.60;2.08;;;10.00;99.90;;;;;;5051594;28;20166;-50
2023/12/28 04:59:42;;;;;;;2.30;1.80;;;10.00;99.90;;;;;;5050226;28;20163;-49
2023/12/28 05:02:08;;;;;;;4.68;2.15;;;9.90;99.90;;;;;;5050826;28;20163;-51
2023/12/28 05:04:38;;;;;;;8.05;2.40;;;10.00;99.90;;;;;;5051968;28;20170;-51
2023/12/28 05:07:03;;;;;;;3.35;1.52;;;10.00;99.90;;;;;;5051956;28;20163;-52
2023/12/28 05:09:29;;;;;;;7.95;1.90;;;10.00;99.90;;;;;;5051434;28;20201;-52
2023/12/28 05:11:54;;;;;;;2.67;1.60;;;10.00;99.90;;;;;;5051328;28;20173;-52
2023/12/28 05:14:20;;;;;;;3.17;1.50;;;9.90;99.90;;;;;;5051306;28;20171;-59
2023/12/28 05:16:46;;;;;;;1.67;1.30;;;9.90;99.90;;;;;;5050937;28;20173;-52
2023/12/28 05:19:11;;;;;;;2.20;1.83;;;9.90;99.90;;;;;;5031311;28;20528;-53
2023/12/28 05:21:37;;;;;;;2.63;1.75;;;10.00;99.90;;;;;;5031293;28;20242;-53
2023/12/28 05:24:03;;;;;;;3.28;1.58;;;10.00;99.90;;;;;;5031940;28;20218;-56
2023/12/28 05:26:28;;;;;;;3.53;2.00;;;10.00;99.90;;;;;;5030038;28;20511;-57
2023/12/28 05:28:54;;;;;;;4.50;1.85;;;10.00;99.90;;;;;;5031505;28;20533;-54
2023/12/28 05:31:19;;;;;;;6.80;1.88;;;10.00;99.90;;;;;;5035012;28;20171;-52
2023/12/28 05:33:45;;;;;;;5.30;1.85;;;10.00;99.90;;;;;;5038219;28;20167;-53
2023/12/28 05:36:10;;;;;;;4.45;1.70;;;10.10;99.90;;;;;;5051021;28;20163;-52
2023/12/28 05:38:36;;;;;;;5.22;2.08;;;10.10;99.90;;;;;;5051013;28;20174;-56
2023/12/28 05:41:01;;;;;;;1.83;1.58;;;10.10;99.90;;;;;;5051703;28;20182;-54
2023/12/28 05:43:27;;;;;;;6.80;1.88;;;10.10;99.90;;;;;;5050924;28;20229;-50
2023/12/28 05:45:53;;;;;;;4.88;1.70;;;10.10;99.90;;;;;;5049623;28;20163;-51
2023/12/28 05:48:18;;;;;;;5.10;1.98;;;10.00;99.90;;;;;;5051344;28;20626;-50
2023/12/28 05:50:44;;;;;;;2.95;1.38;;;8.30;99.90;;;;;;5054971;28;20182;-49
2023/12/28 05:53:13;;;;;;;2.05;1.50;;;10.10;99.90;;;;;;5054916;28;20167;-49
2023/12/28 05:55:42;;;;;;;2.97;1.60;;;10.10;99.90;;;;;;5054746;28;20682;-51
2023/12/28 05:58:09;;;;;;;3.67;1.80;;;10.10;99.90;;;;;;5054785;28;20634;-50
2023/12/28 06:00:36;;;;;;;5.55;1.63;;;10.10;99.90;;;;;;5053409;28;20573;-50
2023/12/28 06:03:02;;;;;;;4.57;1.55;;;10.20;99.90;;;;;;5051642;28;20198;-50
2023/12/28 06:05:28;;;;;;;2.78;1.75;;;10.10;99.90;;;;;;5054749;28;20190;-50
2023/12/28 06:07:54;;;;;;;7.15;2.25;;;10.10;99.90;;;;;;5054684;28;20665;-49
2023/12/28 06:10:20;;;;;;;8.18;1.92;;;10.10;99.90;;;;;;5054907;28;20246;-51
2023/12/28 06:12:45;;;;;;;5.10;2.33;;;10.10;99.90;;;;;;5055145;28;20179;-50
2023/12/28 06:15:11;;;;;;;5.40;1.58;;;10.10;99.90;;;;;;5054588;28;20178;-50
2023/12/28 06:17:36;;;;;;;5.05;2.05;;;10.10;99.90;;;;;;5054635;28;20178;-50
2023/12/28 06:20:02;;;;;;;6.65;2.53;;;10.10;99.90;;;;;;5054962;28;20167;-51
2023/12/28 06:22:28;;;;;;;4.72;2.17;;;10.10;99.90;;;;;;5054306;28;20285;-51
2023/12/28 06:24:54;;;;;;;3.90;2.30;;;10.10;99.90;;;;;;5054353;28;20163;-50
2023/12/28 06:27:20;;;;;;;5.85;2.63;;;10.10;99.90;;;;;;5054275;28;20159;-51
2023/12/28 06:29:46;;;;;;;5.22;1.92;;;10.10;99.90;;;;;;5054307;28;20174;-50
2023/12/28 06:32:12;;;;;;;4.88;1.77;;;10.10;99.90;;;;;;5053227;28;20171;-50
2023/12/28 06:34:37;;;;;;;4.45;1.83;;;10.10;99.90;;;;;;5053805;28;20212;-50
2023/12/28 06:37:03;;;;;;;5.35;1.83;;;10.10;99.90;;;;;;5054632;28;20174;-52
2023/12/28 06:39:29;;;;;;;3.90;1.83;;;10.20;99.90;;;;;;5054345;28;20182;-49
2023/12/28 06:41:54;;;;;;;4.65;1.90;;;10.20;99.90;;;;;;5054005;28;20167;-50
2023/12/28 06:44:20;;;;;;;5.65;2.00;;;10.20;99.90;;;;;;5053933;28;20185;-49
2023/12/28 06:46:45;;;;;;;3.45;2.40;;;10.20;99.90;;;;;;5053927;28;20397;-50
2023/12/28 06:49:11;;;;;;;10.73;2.45;;;10.20;99.90;;;;;;5053962;28;20630;-50
2023/12/28 06:51:37;;;;;;;5.03;2.33;;;10.20;99.90;;;;;;5053863;28;20159;-50
2023/12/28 06:54:02;;;;;;;3.72;2.10;;;10.10;99.90;;;;;;5054064;28;20210;-49
2023/12/28 06:56:28;;;;;;;6.88;2.92;;;10.10;99.90;;;;;;5053282;28;20262;-50
2023/12/28 06:58:54;;;;;;;6.32;2.90;;;10.10;99.90;;;;;;5053979;28;20572;-49
2023/12/28 07:01:19;;;;;;;8.55;2.22;;;10.20;99.90;;;;;;5046140;28;20294;-49
2023/12/28 07:03:45;;;;;;;5.57;2.10;;;10.10;99.90;;;;;;5033694;28;20207;-51
2023/12/28 07:06:10;;;;;;;3.13;2.10;;;10.10;99.90;;;;;;5033661;28;20164;-50
2023/12/28 07:08:36;;;;;;;5.75;2.55;;;10.10;99.90;;;;;;5033203;28;20266;-49
2023/12/28 07:11:02;;;;;;;4.07;1.70;;;10.10;99.90;;;;;;5033789;28;20171;-49
2023/12/28 07:13:27;;;;;;;7.53;1.88;;;10.10;99.90;;;;;;5033415;28;20298;-50
2023/12/28 07:15:53;;;;;;;7.05;1.73;;;10.20;99.90;;;;;;5032899;28;20229;-49
2023/12/28 07:18:19;;;;;;;5.75;2.40;;;10.20;99.90;;;;;;5033145;28;20171;-50
2023/12/28 07:20:44;;;;;;;7.85;1.63;;;10.20;99.90;;;;;;5032875;28;20496;-49
2023/12/28 07:23:10;;;;;;;5.75;1.73;;;10.20;99.90;;;;;;5033255;28;20288;-57
2023/12/28 07:25:35;;;;;;;4.43;1.88;;;10.30;99.90;;;;;;5033552;28;20376;-51
2023/12/28 07:28:01;;;;;;;6.55;2.55;;;10.30;99.90;;;;;;5033691;28;20175;-59
2023/12/28 07:30:27;;;;;;;2.42;1.90;;;10.20;99.90;;;;;;5033336;28;20167;-50
2023/12/28 07:32:53;;;;;;;6.93;2.42;;;10.20;99.90;;;;;;5052508;28;20527;-50
2023/12/28 07:35:18;;;;;;;5.97;2.30;;;10.20;99.90;;;;;;5052683;28;20162;-50
2023/12/28 07:37:44;;;;;;;6.50;2.10;;;10.20;99.90;;;;;;5053131;28;20178;-50
2023/12/28 07:40:12;;;;;;;7.28;2.53;;;10.20;99.90;;;;;;5051618;28;20185;-49
2023/12/28 07:42:37;;;;;;;4.80;2.03;;;10.20;99.90;;;;;;5052503;28;20191;-49
2023/12/28 07:45:03;;;;;;;9.48;3.08;;;10.20;99.90;;;;;;5052700;28;20266;-51
2023/12/28 07:47:29;;;;;;;9.23;2.50;;;10.20;99.90;;;;;;5052681;28;20197;-50
2023/12/28 07:49:55;;;;;;;8.20;2.92;;;10.20;99.90;;;;;;5052756;28;20277;-50
2023/12/28 07:52:20;;;;;;;5.28;1.90;;;10.20;99.90;;;;;;5052436;28;20177;-49
2023/12/28 07:54:46;;;;;;;5.07;2.08;;;10.20;99.90;;;;;;5052554;28;20577;-53
2023/12/28 07:57:11;;;;;;;7.43;3.05;;;10.20;99.90;;;;;;5052182;28;20185;-54
2023/12/28 07:59:37;;;;;;;4.55;1.60;;;10.20;99.90;;;;;;5052992;28;20175;-55
2023/12/28 08:02:03;;;;;;;9.27;2.83;;;10.20;99.90;;;;;;5040044;28;20584;-54
2023/12/28 08:04:28;;;;;;;5.07;1.95;;;10.20;99.90;;;;;;5032615;28;20167;-60
2023/12/28 08:06:54;;;;;;;8.27;2.30;;;10.20;99.90;;;;;;5032465;28;20250;-63
2023/12/28 08:09:19;;;;;;;7.82;1.73;;;10.20;99.90;;;;;;5032404;28;20199;-52
2023/12/28 08:11:45;;;;;;;6.10;2.25;;;10.20;99.90;;;;;;5031868;28;20249;-51
2023/12/28 08:14:11;;;;;;;6.35;1.65;;;10.20;99.90;;;;;;5032411;28;20167;-51
2023/12/28 08:16:36;;;;;;;10.68;2.40;;;10.30;99.90;;;;;;5032314;28;20657;-51
2023/12/28 08:19:02;;;;;;;6.00;2.17;;;10.20;99.90;;;;;;5032304;28;20164;-51
2023/12/28 08:21:27;;;;;;;6.70;2.53;;;10.20;99.90;;;;;;5032205;28;20175;-52
2023/12/28 08:23:53;;;;;;;5.40;2.10;;;10.30;99.90;;;;;;5032052;28;20211;-63
2023/12/28 08:26:19;;;;;;;8.02;2.35;;;10.30;99.90;;;;;;5032133;28;20194;-53
2023/12/28 08:28:45;;;;;;;8.23;2.20;;;10.30;99.90;;;;;;5032109;28;20730;-53
2023/12/28 08:31:10;;;;;;;4.72;2.17;;;10.20;99.90;;;;;;5039670;28;20175;-52
2023/12/28 08:33:39;;;;;;;9.45;1.80;;;10.30;99.90;;;;;;5051627;28;20216;-51
2023/12/28 08:36:09;;;;;;;6.25;2.10;;;10.30;99.90;;;;;;5051789;28;20162;-53
2023/12/28 08:38:35;;;;;;;4.32;1.80;;;10.30;99.90;;;;;;5052023;28;20625;-53
2023/12/28 08:41:03;;;;;;;3.05;1.60;;;10.40;99.90;;;;;;5052232;28;20173;-52
2023/12/28 08:43:29;;;;;;;8.38;1.85;;;10.40;99.90;;;;;;5051879;28;20210;-53
2023/12/28 08:45:54;;;;;;;8.05;2.08;;;10.40;99.90;;;;;;5051360;28;20166;-55
2023/12/28 08:48:20;;;;;;;7.75;2.63;;;10.40;99.90;;;;;;5051601;28;20210;-51
2023/12/28 08:50:46;;;;;;;4.78;1.75;;;10.50;99.90;;;;;;5051663;28;20174;-55
2023/12/28 08:53:11;;;;;;;6.38;2.25;;;10.50;99.90;;;;;;5050344;28;20198;-50
2023/12/28 08:55:37;;;;;;;7.13;2.67;;;10.50;99.90;;;;;;5050099;28;20256;-51
2023/12/28 08:58:03;;;;;;;5.15;2.17;;;10.50;99.90;;;;;;5052016;28;20232;-53
2023/12/28 09:00:28;;;;;;;4.40;2.03;;;10.50;99.90;;;;;;5049218;28;20202;-56
2023/12/28 09:02:54;;;;;;;7.80;1.95;;;10.50;99.90;;;;;;5031786;28;20234;-54
2023/12/28 09:05:19;;;;;;;10.30;2.50;;;10.50;99.90;;;;;;5031569;28;20592;-53
2023/12/28 09:07:45;;;;;;;5.40;1.80;;;10.60;99.90;;;;;;5031434;28;20506;-53
2023/12/28 09:10:11;;;;;;;8.50;1.52;;;10.50;99.90;;;;;;5031419;28;20642;-54
2023/12/28 09:12:37;;;;;;;7.05;2.42;;;10.60;99.90;;;;;;5031138;28;20171;-53
2023/12/28 09:15:05;;;;;;;6.45;2.08;;;10.60;99.90;;;;;;5030492;28;20220;-55
2023/12/28 09:17:30;;;;;;;10.63;2.50;;;10.60;99.90;;;;;;5031676;28;20172;-54
2023/12/28 09:19:57;;;;;;;8.10;1.95;;;10.60;99.90;;;;;;5031646;28;20175;-57
2023/12/28 09:22:23;;;;;;;7.03;2.20;;;10.60;99.90;;;;;;5031092;28;20217;-56
2023/12/28 09:24:49;;;;;;;4.32;1.92;;;10.60;99.90;;;;;;5030774;28;20183;-54
2023/12/28 09:27:14;;;;;;;10.80;2.13;;;10.60;99.90;;;;;;5031159;28;20170;-56
2023/12/28 09:29:40;;;;;;;5.88;1.90;;;10.60;99.90;;;;;;5031189;28;20186;-52
2023/12/28 09:32:06;;;;;;;9.70;2.17;;;10.50;99.90;;;;;;5045923;28;20163;-59
2023/12/28 09:34:31;;;;;;;6.10;1.90;;;10.60;99.90;;;;;;5051482;28;20210;-54
2023/12/28 09:36:57;;;;;;;5.13;2.05;;;10.60;99.90;;;;;;5051006;28;20249;-56
2023/12/28 09:39:22;;;;;;;7.70;2.83;;;10.70;99.90;;;;;;5050743;28;20253;-51
2023/12/28 09:42:14;;;;;;;6.78;2.08;;;10.70;99.90;;;;;;5050984;28;20167;-50
2023/12/28 09:44:43;;;;;;;8.02;2.22;;;10.80;99.90;;;;;;5050601;28;20273;-51
2023/12/28 09:47:12;;;;;;;4.93;1.70;;;10.90;99.90;;;;;;5050889;28;20220;-55
2023/12/28 09:49:39;;;;;;;5.40;1.65;;;10.90;99.90;;;;;;5050919;28;20155;-52
2023/12/28 09:52:06;;;;;;;3.55;1.50;;;11.00;99.90;;;;;;5050867;28;20253;-56
2023/12/28 09:54:31;;;;;;;8.40;2.10;;;11.10;99.90;;;;;;5051254;28;20252;-53
2023/12/28 09:56:57;;;;;;;5.30;1.92;;;11.10;99.90;;;;;;5051104;28;20174;-56
2023/12/28 09:59:24;;;;;;;6.95;2.10;;;11.10;99.90;;;;;;5050863;28;20225;-59
2023/12/28 10:01:49;;;;;;;7.57;2.00;;;11.20;99.90;;;;;;5050034;28;20218;-51
2023/12/28 10:04:16;;;;;;;5.25;1.48;;;11.20;99.90;;;;;;5050701;28;20240;-54
2023/12/28 10:06:42;;;;;;;6.35;2.00;;;11.20;99.90;;;;;;5050768;28;20166;-56
2023/12/28 10:09:07;;;;;;;10.18;2.13;;;11.10;99.90;;;;;;5050775;28;20627;-56
2023/12/28 10:11:33;;;;;;;7.57;1.90;;;11.20;99.90;;;;;;5051364;28;20181;-51
2023/12/28 10:13:59;;;;;;;2.88;1.55;;;11.20;99.90;;;;;;5050682;28;20229;-55
2023/12/28 10:16:26;;;;;;;12.52;2.30;;;11.30;99.90;;;;;;5050597;28;20277;-53
2023/12/28 10:18:52;;;;;;;5.20;1.17;;;11.30;99.90;;;;;;5050608;28;20170;-51
2023/12/28 10:21:17;;;;;;;6.72;1.88;;;11.30;99.90;;;;;;5050332;28;20175;-52
2023/12/28 10:23:43;;;;;;;7.45;1.35;;;11.30;99.90;;;;;;5050420;28;20217;-52
2023/12/28 10:26:08;;;;;;;6.40;1.98;;;11.40;99.90;;;;;;5050441;28;20170;-56
2023/12/28 10:28:34;;;;;;;6.85;1.80;;;11.30;99.90;;;;;;5050150;28;20251;-50
2023/12/28 10:31:01;;;;;;;7.53;1.85;;;11.40;99.90;;;;;;5042634;28;20179;-50
2023/12/28 10:33:26;;;;;;;9.18;1.80;;;11.50;99.90;;;;;;5030716;28;20172;-49
2023/12/28 10:35:53;;;;;;;7.70;1.77;;;11.50;99.90;;;;;;5033148;28;20496;-48
2023/12/28 10:38:20;;;;;;;7.10;2.30;;;11.50;99.90;;;;;;5034272;28;20172;-51
2023/12/28 10:40:48;;;;;;;9.57;2.10;;;11.60;99.90;;;;;;5034067;28;20163;-51
2023/12/28 10:43:19;;;;;;;7.70;1.83;;;11.60;99.90;;;;;;5034387;28;20293;-51
2023/12/28 10:45:48;;;;;;;6.18;1.48;;;11.70;99.90;;;;;;5034130;28;20214;-50
2023/12/28 10:48:13;;;;;;;3.92;1.15;;;11.80;99.90;;;;;;5034148;28;20163;-51
2023/12/28 10:50:46;;;;;;;7.75;2.08;;;11.80;99.90;;;;;;5032658;28;20191;-49
2023/12/28 10:53:34;;;;;;;5.30;1.60;;;11.80;99.90;;;;;;5033953;28;20171;-50
2023/12/28 10:56:08;;;;;;;5.00;1.63;;;11.80;99.90;;;;;;5034086;28;20218;-50
2023/12/28 10:58:50;;;;;;;8.75;1.73;;;11.90;99.90;;;;;;5033687;28;20554;-50
2023/12/28 11:01:26;;;;;;;6.13;1.70;;;11.90;99.90;;;;;;5042029;28;20171;-50
2023/12/28 11:04:08;;;;;;;6.35;1.50;;;11.80;99.90;;;;;;5053672;28;20321;-50
2023/12/28 11:06:36;;;;;;;9.60;2.15;;;11.90;99.90;;;;;;5053306;28;20162;-50
2023/12/28 11:09:03;;;;;;;4.32;1.98;;;12.00;99.90;;;;;;5054138;28;20178;-51
2023/12/28 11:11:29;;;;;;;5.88;1.50;;;11.90;99.90;;;;;;5053989;28;20175;-51
2023/12/28 11:13:56;;;;;;;4.45;1.70;;;12.00;99.90;;;;;;5053210;28;20171;-52
2023/12/28 11:16:22;;;;;;;5.20;1.70;;;12.00;99.90;;;;;;5053518;28;20172;-51
2023/12/28 11:18:49;;;;;;;5.38;1.83;;;11.90;99.90;;;;;;5053335;28;20163;-50
2023/12/28 11:21:16;;;;;;;6.75;1.85;;;11.90;99.90;;;;;;5053361;28;20209;-54
2023/12/28 11:23:42;;;;;;;7.10;1.50;;;11.90;99.90;;;;;;5053209;28;20624;-53
2023/12/28 11:26:21;;;;;;;7.75;2.35;;;12.00;99.90;;;;;;5053490;28;20193;-57
2023/12/28 11:28:47;;;;;;;6.63;2.10;;;12.00;99.90;;;;;;5053123;28;20261;-52
2023/12/28 11:31:17;;;;;;;10.18;2.10;;;12.20;99.90;;;;;;5040993;28;20321;-52
2023/12/28 11:33:47;;;;;;;4.68;1.58;;;12.20;99.90;;;;;;5033093;28;20183;-51
2023/12/28 11:36:35;;;;;;;5.85;1.35;;;12.20;99.90;;;;;;5033108;28;20174;-52
2023/12/28 11:39:06;;;;;;;8.50;2.33;;;12.20;99.90;;;;;;5033469;28;20531;-57
2023/12/28 11:41:33;;;;;;;7.90;2.17;;;12.30;99.90;;;;;;5033447;28;20198;-50
2023/12/28 11:44:02;;;;;;;5.00;1.92;;;12.30;99.90;;;;;;5032873;28;20203;-51
2023/12/28 11:46:29;;;;;;;8.07;1.88;;;12.40;99.90;;;;;;5032369;28;20164;-51
2023/12/28 11:49:04;;;;;;;6.57;1.77;;;12.40;99.90;;;;;;5031720;28;20182;-60
2023/12/28 11:51:30;;;;;;;8.10;2.10;;;12.40;99.90;;;;;;5033278;28;20178;-61
2023/12/28 11:53:56;;;;;;;8.77;2.17;;;12.40;99.90;;;;;;5031155;28;20171;-61
2023/12/28 11:56:25;;;;;;;4.20;1.55;;;12.40;99.90;;;;;;5032526;28;20174;-61
2023/12/28 11:58:51;;;;;;;6.25;1.95;;;12.30;99.90;;;;;;5031159;28;20262;-61
2023/12/28 12:01:17;;;;;;;5.50;1.88;;;12.30;99.90;;;;;;5044465;28;20257;-61
2023/12/28 12:03:43;;;;;;;3.78;1.40;;;12.20;99.90;;;;;;5051704;28;20669;-61
2023/12/28 12:06:14;;;;;;;8.40;1.95;;;12.20;99.90;;;;;;5051930;28;20167;-55
2023/12/28 12:08:40;;;;;;;7.30;1.95;;;12.20;99.90;;;;;;5050929;28;20167;-61
2023/12/28 12:11:18;;;;;;;8.73;2.33;;;12.20;99.90;;;;;;5052112;28;20636;-61
2023/12/28 12:13:44;;;;;;;7.10;1.90;;;12.20;99.90;;;;;;5051884;28;20221;-59
2023/12/28 12:16:10;;;;;;;9.23;2.35;;;12.20;99.90;;;;;;5052035;28;20170;-61
2023/12/28 12:18:36;;;;;;;4.50;2.13;;;12.30;99.90;;;;;;5051742;28;20177;-61
2023/12/28 12:21:02;;;;;;;15.15;2.30;;;12.20;99.90;;;;;;5052318;28;20254;-61
2023/12/28 12:23:28;;;;;;;8.75;2.83;;;12.20;99.90;;;;;;5052308;28;20252;-61
2023/12/28 12:25:55;;;;;;;3.38;1.52;;;12.20;99.90;;;;;;5051941;28;20158;-60
2023/12/28 12:28:21;;;;;;;5.43;1.80;;;12.20;99.90;;;;;;5051834;28;20691;-57
2023/12/28 12:30:55;;;;;;;6.85;2.10;;;12.10;99.90;;;;;;5042434;28;20180;-61
2023/12/28 12:33:23;;;;;;;6.22;1.83;;;12.10;99.90;;;;;;5031464;28;20262;-62
2023/12/28 12:35:50;;;;;;;5.07;2.10;;;12.10;99.90;;;;;;5031743;28;20259;-59
2023/12/28 12:38:16;;;;;;;5.53;1.90;;;12.10;99.90;;;;;;5031734;28;20160;-62
2023/12/28 12:40:42;;;;;;;1.92;1.50;;;12.10;99.90;;;;;;5031648;28;20555;-60
2023/12/28 12:43:08;;;;;;;12.50;2.30;;;12.10;99.90;;;;;;5031480;28;20202;-63
2023/12/28 12:45:35;;;;;;;5.03;1.80;;;12.10;99.90;;;;;;5031482;28;20679;-63
2023/12/28 12:48:01;;;;;;;6.30;1.70;;;12.10;99.90;;;;;;5031711;28;20167;-60